sensor_id;sensor_type;location;lat;lon;timestamp;P1;durP1;ratioP1;P2;durP2;ratioP2
8580;SDS011;4328;48.622;9.230;2023-08-06T00:01:49;12.10;;;10.70;;
8580;SDS011;4328;48.622;9.230;2023-08-06T00:04:16;9.87;;;8.97;;
8580;SDS011;4328;48.622;9.230;2023-08-06T00:06:42;18.90;;;9.03;;
8580;SDS011;4328;48.622;9.230;2023-08-06T00:09:09;34.87;;;9.47;;
8580;SDS011;4328;48.622;9.230;2023-08-06T00:11:36;13.13;;;8.83;;
8580;SDS011;4328;48.622;9.230;2023-08-06T00:14:03;11.23;;;8.40;;
8580;SDS011;4328;48.622;9.230;2023-08-06T00:16:29;9.03;;;8.07;;
8580;SDS011;4328;48.622;9.230;2023-08-06T00:18:56;37.47;;;8.90;;
8580;SDS011;4328;48.622;9.230;2023-08-06T00:21:22;8.17;;;7.40;;
8580;SDS011;4328;48.622;9.230;2023-08-06T00:23:48;7.47;;;6.80;;
8580;SDS011;4328;48.622;9.230;2023-08-06T00:26:15;22.20;;;6.80;;
8580;SDS011;4328;48.622;9.230;2023-08-06T00:28:43;9.17;;;6.97;;
8580;SDS011;4328;48.622;9.230;2023-08-06T00:31:09;9.03;;;6.77;;
8580;SDS011;4328;48.622;9.230;2023-08-06T00:33:35;7.33;;;6.63;;
8580;SDS011;4328;48.622;9.230;2023-08-06T00:36:02;6.90;;;6.03;;
8580;SDS011;4328;48.622;9.230;2023-08-06T00:38:28;6.13;;;5.53;;
8580;SDS011;4328;48.622;9.230;2023-08-06T00:40:54;5.57;;;5.07;;
8580;SDS011;4328;48.622;9.230;2023-08-06T00:43:21;6.27;;;5.67;;
8580;SDS011;4328;48.622;9.230;2023-08-06T00:45:49;5.87;;;4.73;;
8580;SDS011;4328;48.622;9.230;2023-08-06T00:48:15;4.77;;;4.40;;
8580;SDS011;4328;48.622;9.230;2023-08-06T00:50:42;5.30;;;4.77;;
8580;SDS011;4328;48.622;9.230;2023-08-06T00:53:08;4.60;;;4.30;;
8580;SDS011;4328;48.622;9.230;2023-08-06T00:55:34;4.90;;;4.43;;
8580;SDS011;4328;48.622;9.230;2023-08-06T00:58:01;5.03;;;4.63;;
8580;SDS011;4328;48.622;9.230;2023-08-06T01:00:28;6.57;;;4.73;;
8580;SDS011;4328;48.622;9.230;2023-08-06T01:02:56;4.87;;;4.43;;
8580;SDS011;4328;48.622;9.230;2023-08-06T01:05:22;5.13;;;4.73;;
8580;SDS011;4328;48.622;9.230;2023-08-06T01:07:51;4.77;;;4.37;;
8580;SDS011;4328;48.622;9.230;2023-08-06T01:10:23;4.70;;;4.40;;
8580;SDS011;4328;48.622;9.230;2023-08-06T01:12:52;4.93;;;4.53;;
8580;SDS011;4328;48.622;9.230;2023-08-06T01:15:23;4.83;;;4.33;;
8580;SDS011;4328;48.622;9.230;2023-08-06T01:17:50;4.70;;;4.40;;
8580;SDS011;4328;48.622;9.230;2023-08-06T01:20:19;5.07;;;4.40;;
8580;SDS011;4328;48.622;9.230;2023-08-06T01:22:46;4.70;;;4.30;;
8580;SDS011;4328;48.622;9.230;2023-08-06T01:25:13;5.03;;;4.50;;
8580;SDS011;4328;48.622;9.230;2023-08-06T01:27:43;4.93;;;4.53;;
8580;SDS011;4328;48.622;9.230;2023-08-06T01:30:11;4.30;;;3.97;;
8580;SDS011;4328;48.622;9.230;2023-08-06T01:32:39;4.60;;;4.20;;
8580;SDS011;4328;48.622;9.230;2023-08-06T01:35:07;4.40;;;3.70;;
8580;SDS011;4328;48.622;9.230;2023-08-06T01:37:35;4.40;;;3.93;;
8580;SDS011;4328;48.622;9.230;2023-08-06T01:40:07;4.47;;;3.90;;
8580;SDS011;4328;48.622;9.230;2023-08-06T01:42:33;5.43;;;4.13;;
8580;SDS011;4328;48.622;9.230;2023-08-06T01:44:59;4.53;;;4.13;;
8580;SDS011;4328;48.622;9.230;2023-08-06T01:47:26;5.10;;;4.43;;
8580;SDS011;4328;48.622;9.230;2023-08-06T01:49:52;4.70;;;4.30;;
8580;SDS011;4328;48.622;9.230;2023-08-06T01:52:19;13.10;;;4.53;;
8580;SDS011;4328;48.622;9.230;2023-08-06T01:54:45;7.27;;;4.43;;
8580;SDS011;4328;48.622;9.230;2023-08-06T01:57:13;6.97;;;4.43;;
8580;SDS011;4328;48.622;9.230;2023-08-06T01:59:39;4.87;;;4.37;;
8580;SDS011;4328;48.622;9.230;2023-08-06T02:02:05;5.33;;;4.10;;
8580;SDS011;4328;48.622;9.230;2023-08-06T02:04:32;4.03;;;3.43;;
8580;SDS011;4328;48.622;9.230;2023-08-06T02:06:58;4.70;;;4.30;;
8580;SDS011;4328;48.622;9.230;2023-08-06T02:09:25;3.80;;;3.50;;
8580;SDS011;4328;48.622;9.230;2023-08-06T02:11:51;6.33;;;3.87;;
8580;SDS011;4328;48.622;9.230;2023-08-06T02:14:19;5.33;;;3.60;;
8580;SDS011;4328;48.622;9.230;2023-08-06T02:16:45;3.63;;;3.43;;
8580;SDS011;4328;48.622;9.230;2023-08-06T02:19:12;3.63;;;3.43;;
8580;SDS011;4328;48.622;9.230;2023-08-06T02:21:38;3.50;;;3.10;;
8580;SDS011;4328;48.622;9.230;2023-08-06T02:24:04;4.00;;;3.03;;
8580;SDS011;4328;48.622;9.230;2023-08-06T02:26:31;3.63;;;3.43;;
8580;SDS011;4328;48.622;9.230;2023-08-06T02:28:57;3.67;;;3.43;;
8580;SDS011;4328;48.622;9.230;2023-08-06T02:31:25;8.77;;;3.40;;
8580;SDS011;4328;48.622;9.230;2023-08-06T02:33:51;3.70;;;3.50;;
8580;SDS011;4328;48.622;9.230;2023-08-06T02:36:18;3.57;;;3.30;;
8580;SDS011;4328;48.622;9.230;2023-08-06T02:38:45;3.37;;;3.07;;
8580;SDS011;4328;48.622;9.230;2023-08-06T02:41:11;3.60;;;3.20;;
8580;SDS011;4328;48.622;9.230;2023-08-06T02:43:38;3.77;;;3.40;;
8580;SDS011;4328;48.622;9.230;2023-08-06T02:46:04;3.77;;;3.47;;
8580;SDS011;4328;48.622;9.230;2023-08-06T02:48:32;5.30;;;3.60;;
8580;SDS011;4328;48.622;9.230;2023-08-06T02:50:58;4.27;;;3.80;;
8580;SDS011;4328;48.622;9.230;2023-08-06T02:53:25;3.80;;;3.50;;
8580;SDS011;4328;48.622;9.230;2023-08-06T02:55:54;3.70;;;3.13;;
8580;SDS011;4328;48.622;9.230;2023-08-06T02:58:21;6.30;;;3.73;;
8580;SDS011;4328;48.622;9.230;2023-08-06T03:00:58;3.50;;;3.20;;
8580;SDS011;4328;48.622;9.230;2023-08-06T03:03:24;3.53;;;3.10;;
8580;SDS011;4328;48.622;9.230;2023-08-06T03:05:52;3.50;;;3.10;;
8580;SDS011;4328;48.622;9.230;2023-08-06T03:08:19;3.50;;;3.20;;
8580;SDS011;4328;48.622;9.230;2023-08-06T03:10:47;3.50;;;3.20;;
8580;SDS011;4328;48.622;9.230;2023-08-06T03:13:13;3.60;;;3.30;;
8580;SDS011;4328;48.622;9.230;2023-08-06T03:15:40;3.83;;;3.40;;
8580;SDS011;4328;48.622;9.230;2023-08-06T03:18:06;3.37;;;3.00;;
8580;SDS011;4328;48.622;9.230;2023-08-06T03:20:33;3.43;;;2.93;;
8580;SDS011;4328;48.622;9.230;2023-08-06T03:23:00;3.40;;;3.20;;
8580;SDS011;4328;48.622;9.230;2023-08-06T03:25:27;3.40;;;3.10;;
8580;SDS011;4328;48.622;9.230;2023-08-06T03:27:53;4.33;;;3.50;;
8580;SDS011;4328;48.622;9.230;2023-08-06T03:30:20;3.70;;;3.40;;
8580;SDS011;4328;48.622;9.230;2023-08-06T03:32:46;3.63;;;3.30;;
8580;SDS011;4328;48.622;9.230;2023-08-06T03:35:13;3.67;;;3.37;;
8580;SDS011;4328;48.622;9.230;2023-08-06T03:37:39;2.90;;;2.70;;
8580;SDS011;4328;48.622;9.230;2023-08-06T03:40:08;3.40;;;3.10;;
8580;SDS011;4328;48.622;9.230;2023-08-06T03:42:34;2.80;;;2.60;;
8580;SDS011;4328;48.622;9.230;2023-08-06T03:45:01;3.20;;;3.00;;
8580;SDS011;4328;48.622;9.230;2023-08-06T03:47:28;4.43;;;2.57;;
8580;SDS011;4328;48.622;9.230;2023-08-06T03:49:54;2.80;;;2.60;;
8580;SDS011;4328;48.622;9.230;2023-08-06T03:52:20;5.03;;;2.70;;
8580;SDS011;4328;48.622;9.230;2023-08-06T03:54:47;2.50;;;2.40;;
8580;SDS011;4328;48.622;9.230;2023-08-06T03:57:14;5.23;;;2.73;;
8580;SDS011;4328;48.622;9.230;2023-08-06T03:59:41;6.03;;;2.70;;
8580;SDS011;4328;48.622;9.230;2023-08-06T04:02:07;4.40;;;2.80;;
8580;SDS011;4328;48.622;9.230;2023-08-06T04:04:34;3.93;;;2.80;;
8580;SDS011;4328;48.622;9.230;2023-08-06T04:07:00;3.33;;;2.90;;
8580;SDS011;4328;48.622;9.230;2023-08-06T04:11:53;2.30;;;2.10;;
8580;SDS011;4328;48.622;9.230;2023-08-06T04:14:21;3.63;;;2.60;;
8580;SDS011;4328;48.622;9.230;2023-08-06T04:16:47;3.67;;;2.20;;
8580;SDS011;4328;48.622;9.230;2023-08-06T04:19:13;2.30;;;2.00;;
8580;SDS011;4328;48.622;9.230;2023-08-06T04:21:40;2.17;;;2.03;;
8580;SDS011;4328;48.622;9.230;2023-08-06T04:24:06;5.07;;;2.30;;
8580;SDS011;4328;48.622;9.230;2023-08-06T04:26:33;2.30;;;1.80;;
8580;SDS011;4328;48.622;9.230;2023-08-06T04:28:59;2.30;;;2.10;;
8580;SDS011;4328;48.622;9.230;2023-08-06T04:31:27;5.43;;;1.90;;
8580;SDS011;4328;48.622;9.230;2023-08-06T04:33:54;3.13;;;1.70;;
8580;SDS011;4328;48.622;9.230;2023-08-06T04:36:21;2.13;;;1.97;;
8580;SDS011;4328;48.622;9.230;2023-08-06T04:38:47;1.50;;;1.40;;
8580;SDS011;4328;48.622;9.230;2023-08-06T04:41:13;1.83;;;1.63;;
8580;SDS011;4328;48.622;9.230;2023-08-06T04:43:40;1.60;;;1.50;;
8580;SDS011;4328;48.622;9.230;2023-08-06T04:46:06;1.47;;;1.37;;
8580;SDS011;4328;48.622;9.230;2023-08-06T04:48:34;2.37;;;1.70;;
8580;SDS011;4328;48.622;9.230;2023-08-06T04:51:00;4.30;;;1.40;;
8580;SDS011;4328;48.622;9.230;2023-08-06T04:53:27;3.97;;;1.63;;
8580;SDS011;4328;48.622;9.230;2023-08-06T04:55:53;1.77;;;1.50;;
8580;SDS011;4328;48.622;9.230;2023-08-06T04:58:19;1.20;;;1.10;;
8580;SDS011;4328;48.622;9.230;2023-08-06T05:00:46;2.40;;;1.43;;
8580;SDS011;4328;48.622;9.230;2023-08-06T05:03:12;2.57;;;1.17;;
8580;SDS011;4328;48.622;9.230;2023-08-06T05:05:41;1.40;;;1.30;;
8580;SDS011;4328;48.622;9.230;2023-08-06T05:08:07;1.10;;;1.00;;
8580;SDS011;4328;48.622;9.230;2023-08-06T05:10:33;1.00;;;0.90;;
8580;SDS011;4328;48.622;9.230;2023-08-06T05:13:00;2.07;;;1.20;;
8580;SDS011;4328;48.622;9.230;2023-08-06T05:15:26;1.40;;;1.20;;
8580;SDS011;4328;48.622;9.230;2023-08-06T05:17:52;2.73;;;1.10;;
8580;SDS011;4328;48.622;9.230;2023-08-06T05:20:20;2.87;;;1.30;;
8580;SDS011;4328;48.622;9.230;2023-08-06T05:22:47;1.40;;;1.30;;
8580;SDS011;4328;48.622;9.230;2023-08-06T05:25:14;3.30;;;1.43;;
8580;SDS011;4328;48.622;9.230;2023-08-06T05:27:40;3.87;;;1.40;;
8580;SDS011;4328;48.622;9.230;2023-08-06T05:30:07;1.87;;;1.40;;
8580;SDS011;4328;48.622;9.230;2023-08-06T05:32:34;1.77;;;1.00;;
8580;SDS011;4328;48.622;9.230;2023-08-06T05:35:00;1.20;;;1.10;;
8580;SDS011;4328;48.622;9.230;2023-08-06T05:37:26;2.03;;;0.83;;
8580;SDS011;4328;48.622;9.230;2023-08-06T05:39:54;1.47;;;1.10;;
8580;SDS011;4328;48.622;9.230;2023-08-06T05:42:20;2.80;;;1.30;;
8580;SDS011;4328;48.622;9.230;2023-08-06T05:44:47;1.43;;;1.03;;
8580;SDS011;4328;48.622;9.230;2023-08-06T05:47:13;1.27;;;0.80;;
8580;SDS011;4328;48.622;9.230;2023-08-06T05:49:40;3.17;;;1.00;;
8580;SDS011;4328;48.622;9.230;2023-08-06T05:52:06;0.93;;;0.90;;
8580;SDS011;4328;48.622;9.230;2023-08-06T05:54:33;1.03;;;0.93;;
8580;SDS011;4328;48.622;9.230;2023-08-06T05:57:01;2.23;;;0.70;;
8580;SDS011;4328;48.622;9.230;2023-08-06T05:59:27;1.43;;;0.90;;
8580;SDS011;4328;48.622;9.230;2023-08-06T06:01:54;0.93;;;0.70;;
8580;SDS011;4328;48.622;9.230;2023-08-06T06:04:20;1.37;;;0.70;;
8580;SDS011;4328;48.622;9.230;2023-08-06T06:06:46;1.83;;;1.10;;
8580;SDS011;4328;48.622;9.230;2023-08-06T06:09:13;1.57;;;0.90;;
8580;SDS011;4328;48.622;9.230;2023-08-06T06:11:39;1.87;;;0.80;;
8580;SDS011;4328;48.622;9.230;2023-08-06T06:14:07;1.63;;;0.70;;
8580;SDS011;4328;48.622;9.230;2023-08-06T06:16:33;1.10;;;0.70;;
8580;SDS011;4328;48.622;9.230;2023-08-06T06:19:00;0.93;;;0.80;;
8580;SDS011;4328;48.622;9.230;2023-08-06T06:21:26;1.00;;;0.77;;
8580;SDS011;4328;48.622;9.230;2023-08-06T06:23:52;1.80;;;0.80;;
8580;SDS011;4328;48.622;9.230;2023-08-06T06:26:19;2.87;;;0.80;;
8580;SDS011;4328;48.622;9.230;2023-08-06T06:28:45;0.83;;;0.70;;
8580;SDS011;4328;48.622;9.230;2023-08-06T06:31:13;2.73;;;0.70;;
8580;SDS011;4328;48.622;9.230;2023-08-06T06:33:39;1.30;;;0.70;;
8580;SDS011;4328;48.622;9.230;2023-08-06T06:36:06;0.93;;;0.93;;
8580;SDS011;4328;48.622;9.230;2023-08-06T06:38:33;2.07;;;0.83;;
8580;SDS011;4328;48.622;9.230;2023-08-06T06:40:59;1.07;;;0.80;;
8580;SDS011;4328;48.622;9.230;2023-08-06T06:43:28;0.83;;;0.70;;
8580;SDS011;4328;48.622;9.230;2023-08-06T06:45:55;0.60;;;0.60;;
8580;SDS011;4328;48.622;9.230;2023-08-06T06:48:23;0.70;;;0.70;;
8580;SDS011;4328;48.622;9.230;2023-08-06T06:50:50;0.70;;;0.57;;
8580;SDS011;4328;48.622;9.230;2023-08-06T06:53:16;1.17;;;0.70;;
8580;SDS011;4328;48.622;9.230;2023-08-06T06:55:42;0.70;;;0.70;;
8580;SDS011;4328;48.622;9.230;2023-08-06T06:58:09;0.80;;;0.53;;
8580;SDS011;4328;48.622;9.230;2023-08-06T07:00:36;2.03;;;0.80;;
8580;SDS011;4328;48.622;9.230;2023-08-06T07:03:02;3.00;;;0.63;;
8580;SDS011;4328;48.622;9.230;2023-08-06T07:05:30;0.83;;;0.70;;
8580;SDS011;4328;48.622;9.230;2023-08-06T07:07:57;1.00;;;0.60;;
8580;SDS011;4328;48.622;9.230;2023-08-06T07:10:23;0.70;;;0.70;;
8580;SDS011;4328;48.622;9.230;2023-08-06T07:12:50;0.80;;;0.63;;
8580;SDS011;4328;48.622;9.230;2023-08-06T07:15:16;0.80;;;0.53;;
8580;SDS011;4328;48.622;9.230;2023-08-06T07:17:43;0.63;;;0.50;;
8580;SDS011;4328;48.622;9.230;2023-08-06T07:20:09;0.57;;;0.40;;
8580;SDS011;4328;48.622;9.230;2023-08-06T07:22:37;0.87;;;0.60;;
8580;SDS011;4328;48.622;9.230;2023-08-06T07:25:04;0.57;;;0.57;;
8580;SDS011;4328;48.622;9.230;2023-08-06T07:27:31;1.87;;;0.43;;
8580;SDS011;4328;48.622;9.230;2023-08-06T07:29:58;0.47;;;0.47;;
8580;SDS011;4328;48.622;9.230;2023-08-06T07:32:24;1.67;;;0.80;;
8580;SDS011;4328;48.622;9.230;2023-08-06T07:34:51;1.67;;;1.00;;
8580;SDS011;4328;48.622;9.230;2023-08-06T07:37:21;1.17;;;0.53;;
8580;SDS011;4328;48.622;9.230;2023-08-06T07:39:49;0.60;;;0.60;;
8580;SDS011;4328;48.622;9.230;2023-08-06T07:42:15;0.70;;;0.70;;
8580;SDS011;4328;48.622;9.230;2023-08-06T07:44:45;0.60;;;0.40;;
8580;SDS011;4328;48.622;9.230;2023-08-06T07:47:15;0.77;;;0.43;;
8580;SDS011;4328;48.622;9.230;2023-08-06T07:49:42;0.90;;;0.67;;
8580;SDS011;4328;48.622;9.230;2023-08-06T07:52:08;1.70;;;0.60;;
8580;SDS011;4328;48.622;9.230;2023-08-06T07:54:36;0.43;;;0.43;;
8580;SDS011;4328;48.622;9.230;2023-08-06T07:57:04;0.60;;;0.60;;
8580;SDS011;4328;48.622;9.230;2023-08-06T07:59:31;0.63;;;0.63;;
8580;SDS011;4328;48.622;9.230;2023-08-06T08:01:57;1.13;;;0.50;;
8580;SDS011;4328;48.622;9.230;2023-08-06T08:04:24;0.90;;;0.73;;
8580;SDS011;4328;48.622;9.230;2023-08-06T08:06:50;0.73;;;0.70;;
8580;SDS011;4328;48.622;9.230;2023-08-06T08:09:17;0.60;;;0.60;;
8580;SDS011;4328;48.622;9.230;2023-08-06T08:11:43;0.97;;;0.83;;
8580;SDS011;4328;48.622;9.230;2023-08-06T08:14:11;2.33;;;1.33;;
8580;SDS011;4328;48.622;9.230;2023-08-06T08:16:37;1.27;;;1.10;;
8580;SDS011;4328;48.622;9.230;2023-08-06T08:19:04;1.13;;;0.70;;
8580;SDS011;4328;48.622;9.230;2023-08-06T08:21:31;1.07;;;0.63;;
8580;SDS011;4328;48.622;9.230;2023-08-06T08:23:58;0.57;;;0.57;;
8580;SDS011;4328;48.622;9.230;2023-08-06T08:26:24;1.70;;;0.60;;
8580;SDS011;4328;48.622;9.230;2023-08-06T08:28:52;0.57;;;0.57;;
8580;SDS011;4328;48.622;9.230;2023-08-06T08:31:20;0.27;;;0.27;;
8580;SDS011;4328;48.622;9.230;2023-08-06T08:33:47;0.43;;;0.43;;
8580;SDS011;4328;48.622;9.230;2023-08-06T08:36:13;0.70;;;0.70;;
8580;SDS011;4328;48.622;9.230;2023-08-06T08:38:39;0.60;;;0.60;;
8580;SDS011;4328;48.622;9.230;2023-08-06T08:41:06;0.33;;;0.33;;
8580;SDS011;4328;48.622;9.230;2023-08-06T08:43:35;0.30;;;0.30;;
8580;SDS011;4328;48.622;9.230;2023-08-06T08:46:02;2.00;;;0.37;;
8580;SDS011;4328;48.622;9.230;2023-08-06T08:48:31;0.30;;;0.30;;
8580;SDS011;4328;48.622;9.230;2023-08-06T08:51:01;0.53;;;0.20;;
8580;SDS011;4328;48.622;9.230;2023-08-06T08:53:28;0.30;;;0.30;;
8580;SDS011;4328;48.622;9.230;2023-08-06T08:55:55;0.30;;;0.30;;
8580;SDS011;4328;48.622;9.230;2023-08-06T08:58:21;0.63;;;0.30;;
8580;SDS011;4328;48.622;9.230;2023-08-06T09:00:47;0.93;;;0.60;;
8580;SDS011;4328;48.622;9.230;2023-08-06T09:03:14;0.50;;;0.50;;
8580;SDS011;4328;48.622;9.230;2023-08-06T09:05:43;0.50;;;0.50;;
8580;SDS011;4328;48.622;9.230;2023-08-06T09:08:11;0.73;;;0.73;;
8580;SDS011;4328;48.622;9.230;2023-08-06T09:10:37;0.50;;;0.50;;
8580;SDS011;4328;48.622;9.230;2023-08-06T09:13:04;0.30;;;0.30;;
8580;SDS011;4328;48.622;9.230;2023-08-06T09:15:31;1.40;;;0.70;;
8580;SDS011;4328;48.622;9.230;2023-08-06T09:17:58;0.60;;;0.40;;
8580;SDS011;4328;48.622;9.230;2023-08-06T09:20:25;0.40;;;0.40;;
8580;SDS011;4328;48.622;9.230;2023-08-06T09:22:53;0.37;;;0.33;;
8580;SDS011;4328;48.622;9.230;2023-08-06T09:25:20;0.30;;;0.30;;
8580;SDS011;4328;48.622;9.230;2023-08-06T09:27:48;0.30;;;0.30;;
8580;SDS011;4328;48.622;9.230;2023-08-06T09:30:28;0.23;;;0.23;;
8580;SDS011;4328;48.622;9.230;2023-08-06T09:32:54;0.20;;;0.20;;
8580;SDS011;4328;48.622;9.230;2023-08-06T09:35:21;0.10;;;0.10;;
8580;SDS011;4328;48.622;9.230;2023-08-06T09:37:47;0.60;;;0.60;;
8580;SDS011;4328;48.622;9.230;2023-08-06T09:42:59;1.40;;;0.50;;
8580;SDS011;4328;48.622;9.230;2023-08-06T09:45:28;0.33;;;0.33;;
8580;SDS011;4328;48.622;9.230;2023-08-06T09:47:55;0.23;;;0.23;;
8580;SDS011;4328;48.622;9.230;2023-08-06T09:50:22;0.10;;;0.10;;
8580;SDS011;4328;48.622;9.230;2023-08-06T09:52:48;0.40;;;0.13;;
8580;SDS011;4328;48.622;9.230;2023-08-06T09:55:16;0.30;;;0.20;;
8580;SDS011;4328;48.622;9.230;2023-08-06T09:57:44;0.30;;;0.30;;
8580;SDS011;4328;48.622;9.230;2023-08-06T10:00:12;0.70;;;0.63;;
8580;SDS011;4328;48.622;9.230;2023-08-06T10:02:39;0.20;;;0.20;;
8580;SDS011;4328;48.622;9.230;2023-08-06T10:05:06;0.20;;;0.20;;
8580;SDS011;4328;48.622;9.230;2023-08-06T10:07:32;1.47;;;0.47;;
8580;SDS011;4328;48.622;9.230;2023-08-06T10:10:02;1.07;;;0.50;;
8580;SDS011;4328;48.622;9.230;2023-08-06T10:12:43;1.10;;;0.60;;
8580;SDS011;4328;48.622;9.230;2023-08-06T10:15:13;1.00;;;0.63;;
8580;SDS011;4328;48.622;9.230;2023-08-06T10:17:41;0.77;;;0.67;;
8580;SDS011;4328;48.622;9.230;2023-08-06T10:20:08;0.83;;;0.60;;
8580;SDS011;4328;48.622;9.230;2023-08-06T10:22:34;0.80;;;0.37;;
8580;SDS011;4328;48.622;9.230;2023-08-06T10:25:01;0.40;;;0.40;;
8580;SDS011;4328;48.622;9.230;2023-08-06T10:27:30;2.83;;;0.70;;
8580;SDS011;4328;48.622;9.230;2023-08-06T10:32:49;1.73;;;0.90;;
8580;SDS011;4328;48.622;9.230;2023-08-06T10:38:02;2.63;;;0.40;;
8580;SDS011;4328;48.622;9.230;2023-08-06T10:40:29;0.30;;;0.30;;
8580;SDS011;4328;48.622;9.230;2023-08-06T10:42:57;0.40;;;0.20;;
8580;SDS011;4328;48.622;9.230;2023-08-06T10:45:24;0.30;;;0.30;;
8580;SDS011;4328;48.622;9.230;2023-08-06T10:47:55;0.40;;;0.40;;
8580;SDS011;4328;48.622;9.230;2023-08-06T10:50:22;0.20;;;0.20;;
8580;SDS011;4328;48.622;9.230;2023-08-06T10:52:48;0.33;;;0.33;;
8580;SDS011;4328;48.622;9.230;2023-08-06T10:55:21;1.60;;;0.37;;
8580;SDS011;4328;48.622;9.230;2023-08-06T10:57:48;0.10;;;0.10;;
8580;SDS011;4328;48.622;9.230;2023-08-06T11:00:14;0.47;;;0.27;;
8580;SDS011;4328;48.622;9.230;2023-08-06T11:02:41;0.23;;;0.23;;
8580;SDS011;4328;48.622;9.230;2023-08-06T11:05:10;0.30;;;0.20;;
8580;SDS011;4328;48.622;9.230;2023-08-06T11:07:37;0.30;;;0.30;;
8580;SDS011;4328;48.622;9.230;2023-08-06T11:10:04;0.60;;;0.27;;
8580;SDS011;4328;48.622;9.230;2023-08-06T11:12:31;0.50;;;0.50;;
8580;SDS011;4328;48.622;9.230;2023-08-06T11:14:57;0.43;;;0.20;;
8580;SDS011;4328;48.622;9.230;2023-08-06T11:17:24;0.30;;;0.30;;
8580;SDS011;4328;48.622;9.230;2023-08-06T11:19:50;0.37;;;0.37;;
8580;SDS011;4328;48.622;9.230;2023-08-06T11:22:18;0.17;;;0.17;;
8580;SDS011;4328;48.622;9.230;2023-08-06T11:24:45;0.37;;;0.37;;
8580;SDS011;4328;48.622;9.230;2023-08-06T11:27:12;0.20;;;0.20;;
8580;SDS011;4328;48.622;9.230;2023-08-06T11:29:39;2.43;;;0.47;;
8580;SDS011;4328;48.622;9.230;2023-08-06T11:32:05;0.17;;;0.17;;
8580;SDS011;4328;48.622;9.230;2023-08-06T11:34:32;0.30;;;0.30;;
8580;SDS011;4328;48.622;9.230;2023-08-06T11:36:58;0.10;;;0.10;;
8580;SDS011;4328;48.622;9.230;2023-08-06T11:39:26;0.20;;;0.13;;
8580;SDS011;4328;48.622;9.230;2023-08-06T11:41:53;0.40;;;0.20;;
8580;SDS011;4328;48.622;9.230;2023-08-06T11:44:19;0.60;;;0.30;;
8580;SDS011;4328;48.622;9.230;2023-08-06T11:46:50;0.47;;;0.30;;
8580;SDS011;4328;48.622;9.230;2023-08-06T11:49:18;0.30;;;0.30;;
8580;SDS011;4328;48.622;9.230;2023-08-06T11:51:47;0.10;;;0.10;;
8580;SDS011;4328;48.622;9.230;2023-08-06T11:54:13;1.03;;;0.20;;
8580;SDS011;4328;48.622;9.230;2023-08-06T11:56:41;0.27;;;0.27;;
8580;SDS011;4328;48.622;9.230;2023-08-06T11:59:08;0.60;;;0.10;;
8580;SDS011;4328;48.622;9.230;2023-08-06T12:01:35;0.50;;;0.50;;
8580;SDS011;4328;48.622;9.230;2023-08-06T12:04:01;0.73;;;0.30;;
8580;SDS011;4328;48.622;9.230;2023-08-06T12:06:30;0.20;;;0.20;;
8580;SDS011;4328;48.622;9.230;2023-08-06T12:08:56;0.20;;;0.20;;
8580;SDS011;4328;48.622;9.230;2023-08-06T12:11:23;0.13;;;0.13;;
8580;SDS011;4328;48.622;9.230;2023-08-06T12:13:51;0.33;;;0.30;;
8580;SDS011;4328;48.622;9.230;2023-08-06T12:16:18;0.10;;;0.10;;
8580;SDS011;4328;48.622;9.230;2023-08-06T12:18:46;0.20;;;0.20;;
8580;SDS011;4328;48.622;9.230;2023-08-06T12:21:13;1.20;;;0.50;;
8580;SDS011;4328;48.622;9.230;2023-08-06T12:23:40;0.30;;;0.30;;
8580;SDS011;4328;48.622;9.230;2023-08-06T12:26:07;0.30;;;0.30;;
8580;SDS011;4328;48.622;9.230;2023-08-06T12:28:33;0.30;;;0.30;;
8580;SDS011;4328;48.622;9.230;2023-08-06T12:31:01;0.20;;;0.20;;
8580;SDS011;4328;48.622;9.230;2023-08-06T12:33:27;0.33;;;0.33;;
8580;SDS011;4328;48.622;9.230;2023-08-06T12:35:54;0.90;;;0.30;;
8580;SDS011;4328;48.622;9.230;2023-08-06T12:38:20;0.30;;;0.30;;
8580;SDS011;4328;48.622;9.230;2023-08-06T12:40:47;0.30;;;0.30;;
8580;SDS011;4328;48.622;9.230;2023-08-06T12:43:13;0.57;;;0.50;;
8580;SDS011;4328;48.622;9.230;2023-08-06T12:45:40;1.30;;;0.60;;
8580;SDS011;4328;48.622;9.230;2023-08-06T12:48:08;0.97;;;0.60;;
8580;SDS011;4328;48.622;9.230;2023-08-06T12:50:35;0.50;;;0.50;;
8580;SDS011;4328;48.622;9.230;2023-08-06T12:53:01;0.70;;;0.67;;
8580;SDS011;4328;48.622;9.230;2023-08-06T12:55:29;1.20;;;0.60;;
8580;SDS011;4328;48.622;9.230;2023-08-06T12:57:56;0.87;;;0.60;;
8580;SDS011;4328;48.622;9.230;2023-08-06T13:00:22;0.60;;;0.60;;
8580;SDS011;4328;48.622;9.230;2023-08-06T13:02:48;0.60;;;0.60;;
8580;SDS011;4328;48.622;9.230;2023-08-06T13:05:16;0.60;;;0.60;;
8580;SDS011;4328;48.622;9.230;2023-08-06T13:07:43;1.03;;;0.60;;
8580;SDS011;4328;48.622;9.230;2023-08-06T13:10:09;0.50;;;0.50;;
8580;SDS011;4328;48.622;9.230;2023-08-06T13:12:35;1.47;;;0.60;;
8580;SDS011;4328;48.622;9.230;2023-08-06T13:15:02;0.60;;;0.60;;
8580;SDS011;4328;48.622;9.230;2023-08-06T13:17:29;0.60;;;0.60;;
8580;SDS011;4328;48.622;9.230;2023-08-06T13:19:55;1.90;;;0.80;;
8580;SDS011;4328;48.622;9.230;2023-08-06T13:22:23;0.60;;;0.60;;
8580;SDS011;4328;48.622;9.230;2023-08-06T13:24:49;0.80;;;0.80;;
8580;SDS011;4328;48.622;9.230;2023-08-06T13:27:16;0.60;;;0.60;;
8580;SDS011;4328;48.622;9.230;2023-08-06T13:29:42;0.57;;;0.57;;
8580;SDS011;4328;48.622;9.230;2023-08-06T13:32:08;0.50;;;0.50;;
8580;SDS011;4328;48.622;9.230;2023-08-06T13:34:35;0.70;;;0.60;;
8580;SDS011;4328;48.622;9.230;2023-08-06T13:37:01;0.33;;;0.33;;
8580;SDS011;4328;48.622;9.230;2023-08-06T13:39:29;0.50;;;0.50;;
8580;SDS011;4328;48.622;9.230;2023-08-06T13:41:55;0.53;;;0.53;;
8580;SDS011;4328;48.622;9.230;2023-08-06T13:44:22;1.47;;;0.50;;
8580;SDS011;4328;48.622;9.230;2023-08-06T13:46:48;0.40;;;0.40;;
8580;SDS011;4328;48.622;9.230;2023-08-06T13:49:15;0.40;;;0.40;;
8580;SDS011;4328;48.622;9.230;2023-08-06T13:51:41;0.50;;;0.50;;
8580;SDS011;4328;48.622;9.230;2023-08-06T13:54:07;2.10;;;0.60;;
8580;SDS011;4328;48.622;9.230;2023-08-06T13:56:35;0.40;;;0.40;;
8580;SDS011;4328;48.622;9.230;2023-08-06T13:59:03;0.50;;;0.50;;
8580;SDS011;4328;48.622;9.230;2023-08-06T14:01:30;0.50;;;0.50;;
8580;SDS011;4328;48.622;9.230;2023-08-06T14:03:58;0.60;;;0.30;;
8580;SDS011;4328;48.622;9.230;2023-08-06T14:06:25;0.97;;;0.40;;
8580;SDS011;4328;48.622;9.230;2023-08-06T14:08:51;1.67;;;0.40;;
8580;SDS011;4328;48.622;9.230;2023-08-06T14:11:17;1.03;;;0.50;;
8580;SDS011;4328;48.622;9.230;2023-08-06T14:13:45;0.30;;;0.30;;
8580;SDS011;4328;48.622;9.230;2023-08-06T14:16:12;0.43;;;0.43;;
8580;SDS011;4328;48.622;9.230;2023-08-06T14:18:38;2.13;;;0.40;;
8580;SDS011;4328;48.622;9.230;2023-08-06T14:21:06;0.77;;;0.60;;
8580;SDS011;4328;48.622;9.230;2023-08-06T14:23:33;0.40;;;0.33;;
8580;SDS011;4328;48.622;9.230;2023-08-06T14:26:00;0.73;;;0.50;;
8580;SDS011;4328;48.622;9.230;2023-08-06T14:28:26;0.40;;;0.40;;
8580;SDS011;4328;48.622;9.230;2023-08-06T14:30:54;0.40;;;0.40;;
8580;SDS011;4328;48.622;9.230;2023-08-06T14:33:20;0.63;;;0.40;;
8580;SDS011;4328;48.622;9.230;2023-08-06T14:35:47;1.03;;;0.40;;
8580;SDS011;4328;48.622;9.230;2023-08-06T14:38:13;0.50;;;0.50;;
8580;SDS011;4328;48.622;9.230;2023-08-06T14:40:40;0.50;;;0.50;;
8580;SDS011;4328;48.622;9.230;2023-08-06T14:43:06;0.50;;;0.50;;
8580;SDS011;4328;48.622;9.230;2023-08-06T14:45:33;0.30;;;0.30;;
8580;SDS011;4328;48.622;9.230;2023-08-06T14:48:00;0.57;;;0.57;;
8580;SDS011;4328;48.622;9.230;2023-08-06T14:50:27;0.90;;;0.60;;
8580;SDS011;4328;48.622;9.230;2023-08-06T14:52:53;1.53;;;0.93;;
8580;SDS011;4328;48.622;9.230;2023-08-06T14:55:24;1.80;;;1.60;;
8580;SDS011;4328;48.622;9.230;2023-08-06T14:57:51;1.90;;;1.80;;
8580;SDS011;4328;48.622;9.230;2023-08-06T15:00:17;0.90;;;0.87;;
8580;SDS011;4328;48.622;9.230;2023-08-06T15:02:44;7.33;;;6.53;;
8580;SDS011;4328;48.622;9.230;2023-08-06T15:05:11;6.13;;;5.53;;
8580;SDS011;4328;48.622;9.230;2023-08-06T15:07:38;6.13;;;2.27;;
8580;SDS011;4328;48.622;9.230;2023-08-06T15:10:04;1.20;;;1.03;;
8580;SDS011;4328;48.622;9.230;2023-08-06T15:12:31;0.30;;;0.30;;
8580;SDS011;4328;48.622;9.230;2023-08-06T15:14:57;0.30;;;0.30;;
8580;SDS011;4328;48.622;9.230;2023-08-06T15:17:25;0.30;;;0.30;;
8580;SDS011;4328;48.622;9.230;2023-08-06T15:19:55;1.20;;;0.33;;
8580;SDS011;4328;48.622;9.230;2023-08-06T15:22:22;0.47;;;0.47;;
8580;SDS011;4328;48.622;9.230;2023-08-06T15:24:49;0.40;;;0.40;;